createdAt,value
2019-03-06T00:00:36.256Z,85.91
2019-03-06T00:01:36.214Z,86.57
2019-03-06T00:02:36.206Z,86.43
2019-03-06T00:03:36.186Z,86.53
2019-03-06T00:04:36.175Z,85.81
2019-03-06T00:05:36.176Z,86.12
2019-03-06T00:06:36.156Z,86.63
2019-03-06T00:07:36.146Z,86.12
2019-03-06T00:08:36.155Z,86.43
2019-03-06T00:09:36.126Z,86.12
2019-03-06T00:10:36.104Z,86.53
2019-03-06T00:11:36.110Z,86.74
2019-03-06T00:12:36.090Z,86.53
2019-03-06T00:13:36.082Z,86.63
2019-03-06T00:14:36.061Z,86.53
2019-03-06T00:15:36.061Z,86.63
2019-03-06T00:16:36.064Z,86.43
2019-03-06T00:17:36.030Z,86.53
2019-03-06T00:18:36.025Z,86.63
2019-03-06T00:19:36.017Z,87.26
2019-03-06T00:20:36.001Z,86.84
2019-03-06T00:21:36.018Z,86.84
2019-03-06T00:22:35.974Z,86.63
2019-03-06T00:23:35.966Z,86.94
2019-03-06T00:24:35.968Z,87.77
2019-03-06T00:25:35.949Z,87.35
2019-03-06T00:26:35.967Z,87.05
2019-03-06T00:27:35.925Z,87.66
2019-03-06T00:28:35.941Z,87.46
2019-03-06T00:29:35.899Z,87.66
2019-03-06T00:30:35.905Z,86.94
2019-03-06T00:31:35.884Z,87.26
2019-03-06T00:32:35.872Z,87.87
2019-03-06T00:33:35.868Z,87.66
2019-03-06T00:34:35.862Z,87.40
2019-03-06T00:35:35.837Z,87.77
2019-03-06T00:36:35.835Z,87.98
2019-03-06T00:37:35.812Z,88.08
2019-03-06T00:38:35.808Z,88.18
2019-03-06T00:39:35.795Z,87.77
2019-03-06T00:40:35.799Z,87.87
2019-03-06T00:41:35.778Z,87.98
2019-03-06T00:42:35.766Z,88.08
2019-03-06T00:43:35.753Z,88.49
2019-03-06T00:44:35.764Z,88.29
2019-03-06T00:45:35.735Z,88.39
2019-03-06T00:46:35.731Z,88.29
2019-03-06T00:47:35.706Z,87.87
2019-03-06T00:48:35.723Z,87.98
2019-03-06T00:49:36.251Z,88.49
2019-03-06T00:50:35.678Z,88.29
2019-03-06T00:51:35.667Z,88.08
2019-03-06T00:52:35.660Z,87.98
2019-03-06T00:53:35.652Z,88.08
2019-03-06T00:54:35.642Z,87.87
2019-03-06T00:55:35.619Z,88.39
2019-03-06T00:56:35.610Z,88.14
2019-03-06T00:57:35.597Z,88.39
2019-03-06T00:58:35.605Z,88.80
2019-03-06T00:59:35.590Z,88.80
2019-03-06T01:00:35.565Z,88.80
2019-03-06T01:01:35.577Z,88.49
2019-03-06T01:02:35.552Z,88.49
2019-03-06T01:03:35.537Z,89.01
2019-03-06T01:04:35.541Z,88.49
2019-03-06T01:05:35.524Z,88.59
2019-03-06T01:06:35.506Z,89.42
2019-03-06T01:07:35.489Z,88.76
2019-03-06T01:08:35.479Z,89.01
2019-03-06T01:09:35.478Z,89.28
2019-03-06T01:10:35.468Z,89.32
2019-03-06T01:11:35.458Z,90.04
2019-03-06T01:12:35.441Z,89.32
2019-03-06T01:13:35.444Z,89.11
2019-03-06T01:14:35.424Z,89.94
2019-03-06T01:15:35.409Z,90.04
2019-03-06T01:16:35.401Z,89.94
2019-03-06T01:17:35.416Z,89.62
2019-03-06T01:18:35.380Z,89.94
2019-03-06T01:19:35.368Z,90.04
2019-03-06T01:20:35.351Z,89.94
2019-03-06T01:21:35.334Z,90.14
2019-03-06T01:22:35.343Z,89.73
2019-03-06T01:23:35.333Z,89.62
2019-03-06T01:24:35.313Z,89.94
2019-03-06T01:25:35.309Z,90.14
2019-03-06T01:26:35.287Z,90.04
2019-03-06T01:27:35.282Z,90.04
2019-03-06T01:28:35.280Z,89.83
2019-03-06T01:29:35.251Z,90.25
2019-03-06T01:30:35.249Z,90.76
2019-03-06T01:31:35.239Z,90.25
2019-03-06T01:32:35.220Z,89.62
2019-03-06T01:33:35.228Z,89.83
2019-03-06T01:34:35.217Z,90.04
2019-03-06T01:35:35.183Z,90.14
2019-03-06T01:36:35.190Z,90.04
2019-03-06T01:37:35.165Z,89.94
2019-03-06T01:38:35.163Z,90.04
2019-03-06T01:39:35.152Z,89.83
2019-03-06T01:40:35.153Z,89.62
2019-03-06T01:41:35.139Z,89.42
2019-03-06T01:42:35.116Z,90.04
2019-03-06T01:43:35.102Z,89.94
2019-03-06T01:44:35.092Z,89.73
2019-03-06T01:45:35.085Z,89.58
2019-03-06T01:46:35.091Z,89.94
2019-03-06T01:47:35.053Z,90.31
2019-03-06T01:48:35.048Z,90.51
2019-03-06T01:49:35.035Z,89.89
2019-03-06T01:50:35.020Z,90.10
2019-03-06T01:51:35.022Z,89.79
2019-03-06T01:52:35.019Z,90.10
2019-03-06T01:53:34.993Z,90.00
2019-03-06T01:54:35.002Z,89.79
2019-03-06T01:55:34.967Z,90.00
2019-03-06T01:56:34.974Z,90.00
2019-03-06T01:57:34.951Z,90.20
2019-03-06T01:58:34.936Z,89.69
2019-03-06T01:59:34.930Z,90.41
2019-03-06T02:00:34.919Z,90.20
2019-03-06T02:01:34.913Z,89.79
2019-03-06T02:02:34.893Z,89.79
2019-03-06T02:03:34.888Z,90.00
2019-03-06T02:04:34.943Z,89.38
2019-03-06T02:05:34.863Z,89.79
2019-03-06T02:06:34.855Z,89.58
2019-03-06T02:07:34.841Z,89.79
2019-03-06T02:08:34.834Z,89.58
2019-03-06T02:09:34.835Z,90.10
2019-03-06T02:10:34.820Z,89.44
2019-03-06T02:11:34.801Z,89.65
2019-03-06T02:12:34.790Z,89.85
2019-03-06T02:13:34.780Z,89.75
2019-03-06T02:14:34.772Z,89.65
2019-03-06T02:15:34.754Z,90.06
2019-03-06T02:16:34.768Z,90.26
2019-03-06T02:17:34.732Z,89.69
2019-03-06T02:18:34.734Z,88.92
2019-03-06T02:19:34.724Z,89.54
2019-03-06T02:20:34.700Z,89.95
2019-03-06T02:21:34.705Z,89.44
2019-03-06T02:22:34.674Z,89.75
2019-03-06T02:23:34.676Z,89.85
2019-03-06T02:24:34.660Z,89.75
2019-03-06T02:25:34.650Z,90.26
2019-03-06T02:26:34.640Z,89.34
2019-03-06T02:27:34.631Z,89.85
2019-03-06T02:28:34.612Z,89.23
2019-03-06T02:29:34.599Z,88.72
2019-03-06T02:30:34.587Z,89.23
2019-03-06T02:31:34.587Z,88.82
2019-03-06T02:32:34.574Z,88.82
2019-03-06T02:33:34.572Z,89.13
2019-03-06T02:34:34.543Z,88.92
2019-03-06T02:35:34.544Z,89.13
2019-03-06T02:36:34.529Z,88.82
2019-03-06T02:37:34.542Z,89.13
2019-03-06T02:38:34.510Z,88.62
2019-03-06T02:39:34.495Z,88.82
2019-03-06T02:40:34.512Z,88.92
2019-03-06T02:41:34.471Z,89.34
2019-03-06T02:42:34.476Z,89.13
2019-03-06T02:43:34.478Z,88.82
2019-03-06T02:44:34.447Z,89.13
2019-03-06T02:45:34.429Z,89.34
2019-03-06T02:46:34.425Z,89.44
2019-03-06T02:47:34.403Z,88.51
2019-03-06T02:48:34.414Z,88.68
2019-03-06T02:49:34.395Z,88.78
2019-03-06T02:50:34.378Z,88.51
2019-03-06T02:51:34.363Z,88.92
2019-03-06T02:52:34.368Z,88.99
2019-03-06T02:53:34.338Z,88.62
2019-03-06T02:54:34.329Z,88.51
2019-03-06T02:55:34.329Z,88.72
2019-03-06T02:56:34.316Z,88.51
2019-03-06T02:57:34.297Z,88.72
2019-03-06T02:58:34.301Z,88.37
2019-03-06T02:59:34.281Z,88.51
2019-03-06T03:00:34.283Z,88.62
2019-03-06T03:01:34.261Z,88.47
2019-03-06T03:02:34.246Z,88.78
2019-03-06T03:03:34.253Z,88.99
2019-03-06T03:04:34.217Z,88.92
2019-03-06T03:05:34.216Z,88.72
2019-03-06T03:06:34.209Z,88.41
2019-03-06T03:07:34.188Z,88.51
2019-03-06T03:08:34.185Z,88.92
2019-03-06T03:09:34.163Z,88.82
2019-03-06T03:10:34.154Z,88.72
2019-03-06T03:11:34.147Z,88.62
2019-03-06T03:12:34.142Z,88.41
2019-03-06T03:13:34.145Z,88.62
2019-03-06T03:14:34.113Z,88.51
2019-03-06T03:15:34.099Z,88.92
2019-03-06T03:16:34.089Z,88.82
2019-03-06T03:17:34.084Z,88.72
2019-03-06T03:18:34.071Z,88.82
2019-03-06T03:19:34.070Z,88.41
2019-03-06T03:20:34.051Z,88.72
2019-03-06T03:21:34.030Z,88.41
2019-03-06T03:22:34.028Z,88.82
2019-03-06T03:23:34.042Z,88.68
2019-03-06T03:24:34.022Z,88.92
2019-03-06T03:25:33.996Z,88.72
2019-03-06T03:26:33.985Z,88.72
2019-03-06T03:27:33.972Z,88.51
2019-03-06T03:28:33.964Z,88.72
2019-03-06T03:29:33.954Z,88.72
2019-03-06T03:30:33.954Z,89.19
2019-03-06T03:31:33.931Z,88.78
2019-03-06T03:32:33.926Z,88.82
2019-03-06T03:33:33.910Z,88.51
2019-03-06T03:34:33.916Z,89.23
2019-03-06T03:35:33.885Z,89.34
2019-03-06T03:36:33.882Z,88.68
2019-03-06T03:37:33.874Z,89.34
2019-03-06T03:38:33.852Z,89.03
2019-03-06T03:39:33.855Z,88.57
2019-03-06T03:40:33.824Z,88.57
2019-03-06T03:41:33.817Z,89.23
2019-03-06T03:42:33.810Z,88.89
2019-03-06T03:43:33.798Z,89.29
2019-03-06T03:44:33.794Z,88.31
2019-03-06T03:45:33.802Z,88.89
2019-03-06T03:46:33.765Z,88.82
2019-03-06T03:47:33.761Z,88.72
2019-03-06T03:48:33.742Z,89.13
2019-03-06T03:49:33.744Z,89.23
2019-03-06T03:50:33.721Z,88.99
2019-03-06T03:51:33.727Z,88.68
2019-03-06T03:52:33.701Z,88.51
2019-03-06T03:53:33.719Z,89.09
2019-03-06T03:54:33.675Z,88.72
2019-03-06T03:55:33.683Z,89.09
2019-03-06T03:56:33.667Z,88.68
2019-03-06T03:57:33.658Z,88.47
2019-03-06T03:58:33.639Z,88.57
2019-03-06T03:59:33.625Z,88.78
2019-03-06T04:00:33.616Z,88.89
2019-03-06T04:01:33.625Z,87.96
2019-03-06T04:02:33.608Z,88.89
2019-03-06T04:03:33.579Z,88.78
2019-03-06T04:04:33.577Z,88.89
2019-03-06T04:05:33.563Z,88.89
2019-03-06T04:06:33.562Z,88.68
2019-03-06T04:07:33.535Z,88.57
2019-03-06T04:08:33.528Z,88.26
2019-03-06T04:09:33.521Z,88.47
2019-03-06T04:10:33.509Z,89.09
2019-03-06T04:11:33.542Z,88.78
2019-03-06T04:12:34.341Z,88.99
2019-03-06T04:13:33.467Z,88.68
2019-03-06T04:14:33.465Z,88.89
2019-03-06T04:15:33.456Z,88.68
2019-03-06T04:16:33.446Z,88.37
2019-03-06T04:17:33.451Z,88.68
2019-03-06T04:18:33.425Z,88.47
2019-03-06T04:19:33.418Z,88.57
2019-03-06T04:20:33.395Z,88.89
2019-03-06T04:21:33.379Z,88.82
2019-03-06T04:22:33.389Z,88.89
2019-03-06T04:23:33.363Z,88.78
2019-03-06T04:24:33.354Z,88.89
2019-03-06T04:25:33.334Z,88.57
2019-03-06T04:26:33.331Z,88.26
2019-03-06T04:27:33.334Z,88.37
2019-03-06T04:28:33.317Z,88.17
2019-03-06T04:29:33.313Z,88.89
2019-03-06T04:30:33.288Z,88.47
2019-03-06T04:31:33.278Z,88.68
2019-03-06T04:32:33.271Z,88.62
2019-03-06T04:33:33.262Z,89.03
2019-03-06T04:34:33.247Z,88.82
2019-03-06T04:35:33.232Z,88.82
2019-03-06T04:36:33.225Z,88.89
2019-03-06T04:37:33.225Z,88.62
2019-03-06T04:38:33.217Z,88.82
2019-03-06T04:39:33.190Z,89.09
2019-03-06T04:40:33.186Z,88.72
2019-03-06T04:41:33.175Z,88.20
2019-03-06T04:42:33.191Z,89.34
2019-03-06T04:43:33.162Z,89.23
2019-03-06T04:44:33.139Z,88.82
2019-03-06T04:45:33.115Z,89.13
2019-03-06T04:46:33.106Z,89.23
2019-03-06T04:47:33.107Z,89.65
2019-03-06T04:48:33.111Z,89.75
2019-03-06T04:49:33.081Z,89.95
2019-03-06T04:50:33.066Z,89.23
2019-03-06T04:51:33.056Z,89.54
2019-03-06T04:52:33.040Z,89.34
2019-03-06T04:53:33.039Z,89.75
2019-03-06T04:54:33.021Z,89.23
2019-03-06T04:55:33.014Z,89.03
2019-03-06T04:56:33.009Z,89.85
2019-03-06T04:57:32.984Z,89.95
2019-03-06T04:58:32.992Z,89.85
2019-03-06T04:59:33.009Z,89.95
2019-03-06T05:00:32.960Z,89.85
2019-03-06T05:01:32.955Z,89.95
2019-03-06T05:02:32.941Z,89.75
2019-03-06T05:03:32.924Z,89.79
2019-03-06T05:04:32.929Z,89.79
2019-03-06T05:05:32.903Z,89.69
2019-03-06T05:06:32.892Z,89.58
2019-03-06T05:07:32.885Z,89.48
2019-03-06T05:08:32.877Z,89.79
2019-03-06T05:09:32.864Z,89.69
2019-03-06T05:10:32.859Z,89.58
2019-03-06T05:11:32.860Z,89.58
2019-03-06T05:12:32.823Z,89.79
2019-03-06T05:13:32.823Z,90.00
2019-03-06T05:14:32.804Z,89.89
2019-03-06T05:15:32.790Z,90.20
2019-03-06T05:16:32.777Z,90.00
2019-03-06T05:17:32.784Z,89.79
2019-03-06T05:18:32.757Z,90.20
2019-03-06T05:19:32.763Z,90.00
2019-03-06T05:20:32.745Z,90.00
2019-03-06T05:21:32.737Z,90.10
2019-03-06T05:22:32.729Z,89.73
2019-03-06T05:23:32.708Z,90.72
2019-03-06T05:24:32.707Z,89.58
2019-03-06T05:25:32.681Z,90.20
2019-03-06T05:26:32.675Z,90.14
2019-03-06T05:27:32.665Z,90.76
2019-03-06T05:28:32.656Z,90.76
2019-03-06T05:29:32.641Z,90.97
2019-03-06T05:30:32.648Z,90.66
2019-03-06T05:31:32.626Z,90.86
2019-03-06T05:32:32.611Z,90.55
2019-03-06T05:33:32.601Z,90.25
2019-03-06T05:34:32.586Z,90.86
2019-03-06T05:35:32.576Z,90.76
2019-03-06T05:36:32.574Z,90.72
2019-03-06T05:37:32.552Z,90.76
2019-03-06T05:38:32.541Z,90.66
2019-03-06T05:39:32.545Z,90.86
2019-03-06T05:40:32.524Z,90.86
2019-03-06T05:41:32.524Z,90.25
2019-03-06T05:42:32.511Z,90.76
2019-03-06T05:43:32.487Z,90.66
2019-03-06T05:44:32.486Z,90.55
2019-03-06T05:45:32.490Z,90.35
2019-03-06T05:46:32.505Z,90.86
2019-03-06T05:47:32.450Z,90.76
2019-03-06T05:48:32.431Z,89.73
2019-03-06T05:49:32.418Z,90.82
2019-03-06T05:50:32.412Z,90.20
2019-03-06T05:51:32.417Z,90.20
2019-03-06T05:52:32.406Z,90.20
2019-03-06T05:53:32.383Z,89.89
2019-03-06T05:54:32.375Z,89.73
2019-03-06T05:55:32.357Z,90.10
2019-03-06T05:56:32.342Z,89.38
2019-03-06T05:57:32.349Z,89.89
2019-03-06T05:58:32.324Z,90.14
2019-03-06T05:59:32.318Z,89.58
2019-03-06T06:00:32.313Z,89.58
2019-03-06T06:01:32.295Z,90.20
2019-03-06T06:02:32.300Z,90.04
2019-03-06T06:03:32.280Z,90.20
2019-03-06T06:04:32.263Z,89.79
2019-03-06T06:05:32.254Z,89.58
2019-03-06T06:06:32.263Z,89.69
2019-03-06T06:07:32.228Z,89.89
2019-03-06T06:08:32.222Z,89.69
2019-03-06T06:09:32.200Z,90.10
2019-03-06T06:10:32.194Z,89.89
2019-03-06T06:11:32.231Z,89.79
2019-03-06T06:12:32.198Z,90.10
2019-03-06T06:13:32.168Z,90.00
2019-03-06T06:14:32.153Z,90.00
2019-03-06T06:15:32.139Z,89.89
2019-03-06T06:16:32.125Z,89.89
2019-03-06T06:17:32.128Z,89.69
2019-03-06T06:18:32.121Z,89.28
2019-03-06T06:19:32.097Z,89.69
2019-03-06T06:20:32.081Z,88.92
2019-03-06T06:21:32.073Z,88.72
2019-03-06T06:22:32.078Z,88.72
2019-03-06T06:23:32.054Z,88.41
2019-03-06T06:24:32.048Z,87.69
2019-03-06T06:25:32.040Z,87.99
2019-03-06T06:26:32.022Z,87.90
2019-03-06T06:27:32.010Z,87.90
2019-03-06T06:28:32.013Z,87.85
2019-03-06T06:29:31.983Z,87.79
2019-03-06T06:30:31.982Z,87.99
2019-03-06T06:31:31.972Z,87.90
2019-03-06T06:32:32.989Z,88.41
2019-03-06T06:33:31.955Z,87.48
2019-03-06T06:34:31.975Z,88.10
2019-03-06T06:35:31.924Z,87.38
2019-03-06T06:36:31.919Z,87.79
2019-03-06T06:37:31.905Z,87.75
2019-03-06T06:38:31.915Z,87.69
2019-03-06T06:39:31.878Z,87.59
2019-03-06T06:40:31.875Z,87.69
2019-03-06T06:41:31.853Z,87.59
2019-03-06T06:42:31.896Z,86.87
2019-03-06T06:43:31.839Z,86.82
2019-03-06T06:44:31.852Z,86.21
2019-03-06T06:45:31.821Z,86.61
2019-03-06T06:46:31.817Z,85.65
2019-03-06T06:47:31.794Z,85.92
2019-03-06T06:48:31.789Z,84.69
2019-03-06T06:49:31.802Z,84.13
2019-03-06T06:50:31.772Z,83.58
2019-03-06T06:51:31.748Z,82.76
2019-03-06T06:52:31.739Z,83.37
2019-03-06T06:53:31.725Z,83.20
2019-03-06T06:54:31.715Z,83.11
2019-03-06T06:55:31.719Z,83.06
2019-03-06T06:56:31.698Z,83.00
2019-03-06T06:57:31.697Z,83.20
2019-03-06T06:58:31.759Z,83.37
2019-03-06T06:59:31.677Z,81.59
2019-03-06T07:00:31.646Z,80.73
2019-03-06T07:01:31.638Z,79.29
2019-03-06T07:02:31.630Z,79.39
2019-03-06T07:03:31.626Z,79.39
2019-03-06T07:04:31.631Z,79.25
2019-03-06T07:05:31.597Z,78.85
2019-03-06T07:06:31.584Z,79.29
2019-03-06T07:07:31.576Z,78.88
2019-03-06T07:08:31.569Z,79.49
2019-03-06T07:09:31.557Z,79.94
2019-03-06T07:10:31.563Z,80.25
2019-03-06T07:11:31.529Z,80.29
2019-03-06T07:12:31.518Z,80.80
2019-03-06T07:13:31.509Z,81.01
2019-03-06T07:14:31.502Z,81.11
2019-03-06T07:15:31.497Z,81.21
2019-03-06T07:16:31.503Z,80.70
2019-03-06T07:17:31.479Z,80.49
2019-03-06T07:18:31.459Z,80.60
2019-03-06T07:19:31.440Z,80.80
2019-03-06T07:20:31.447Z,80.70
2019-03-06T07:21:31.427Z,80.39
2019-03-06T07:22:31.422Z,80.19
2019-03-06T07:23:31.397Z,80.29
2019-03-06T07:24:31.390Z,80.70
2019-03-06T07:25:31.380Z,80.63
2019-03-06T07:26:31.389Z,80.70
2019-03-06T07:27:31.366Z,80.60
2019-03-06T07:28:31.346Z,80.70
2019-03-06T07:29:31.340Z,79.57
2019-03-06T07:30:31.328Z,79.67
2019-03-06T07:31:31.312Z,79.05
2019-03-06T07:32:31.319Z,78.75
2019-03-06T07:33:31.288Z,78.96
2019-03-06T07:34:31.290Z,78.54
2019-03-06T07:35:31.271Z,78.75
2019-03-06T07:36:31.259Z,78.20
2019-03-06T07:37:31.252Z,78.71
2019-03-06T07:38:31.251Z,78.40
2019-03-06T07:39:32.187Z,77.99
2019-03-06T07:40:31.216Z,77.17
2019-03-06T07:41:31.203Z,77.78
2019-03-06T07:42:31.196Z,77.99
2019-03-06T07:43:31.207Z,77.89
2019-03-06T07:44:31.168Z,77.99
2019-03-06T07:45:31.170Z,77.99
2019-03-06T07:46:31.143Z,76.97
2019-03-06T07:47:31.140Z,77.34
2019-03-06T07:48:31.144Z,76.51
2019-03-06T07:49:31.118Z,76.07
2019-03-06T07:50:31.107Z,76.28
2019-03-06T07:51:31.955Z,74.84
2019-03-06T07:52:31.081Z,74.63
2019-03-06T07:53:31.079Z,74.84
2019-03-06T07:54:31.077Z,75.01
2019-03-06T07:55:31.051Z,74.32
2019-03-06T07:56:31.038Z,74.60
2019-03-06T07:57:31.030Z,75.32
2019-03-06T07:58:31.013Z,74.80
2019-03-06T07:59:31.029Z,74.08
2019-03-06T08:00:31.002Z,73.81
2019-03-06T08:01:30.989Z,74.08
2019-03-06T08:02:31.044Z,73.78
2019-03-06T08:03:30.960Z,73.27
2019-03-06T08:04:30.954Z,73.88
2019-03-06T08:05:30.951Z,73.88
2019-03-06T08:06:30.939Z,74.19
2019-03-06T08:07:30.931Z,74.70
2019-03-06T08:08:30.929Z,74.40
2019-03-06T08:09:30.901Z,73.68
2019-03-06T08:10:30.899Z,74.53
2019-03-06T08:11:30.887Z,74.49
2019-03-06T08:12:30.875Z,73.71
2019-03-06T08:13:30.875Z,73.81
2019-03-06T08:14:30.849Z,74.02
2019-03-06T08:15:30.841Z,74.12
2019-03-06T08:16:30.825Z,72.99
2019-03-06T08:17:30.813Z,73.78
2019-03-06T08:18:30.805Z,73.30
2019-03-06T08:19:30.806Z,73.19
2019-03-06T08:20:30.801Z,73.71
2019-03-06T08:21:30.769Z,73.40
2019-03-06T08:22:30.772Z,73.91
2019-03-06T08:23:30.748Z,73.91
2019-03-06T08:24:30.854Z,73.40
2019-03-06T08:25:30.739Z,73.50
2019-03-06T08:26:30.746Z,73.81
2019-03-06T08:27:30.700Z,73.57
2019-03-06T08:28:30.726Z,73.16
2019-03-06T08:29:30.689Z,73.50
2019-03-06T08:30:30.666Z,74.08
2019-03-06T08:31:30.675Z,73.16
2019-03-06T08:32:30.650Z,73.50
2019-03-06T08:33:30.644Z,73.47
2019-03-06T08:34:30.650Z,73.27
2019-03-06T08:35:30.613Z,73.78
2019-03-06T08:36:30.607Z,73.36
2019-03-06T08:37:30.598Z,72.92
2019-03-06T08:38:30.583Z,72.92
2019-03-06T08:39:30.583Z,72.92
2019-03-06T08:40:30.576Z,72.55
2019-03-06T08:41:30.566Z,72.41
2019-03-06T08:42:32.502Z,72.51
2019-03-06T08:43:30.557Z,72.72
2019-03-06T08:44:30.571Z,72.51
2019-03-06T08:45:30.515Z,71.48
2019-03-06T08:46:30.541Z,72.20
2019-03-06T08:47:30.493Z,71.80
2019-03-06T08:48:30.486Z,71.59
2019-03-06T08:49:30.487Z,70.84
2019-03-06T08:50:30.463Z,72.07
2019-03-06T08:51:30.463Z,71.25
2019-03-06T08:52:30.437Z,71.56
2019-03-06T08:53:30.431Z,71.32
2019-03-06T08:54:30.419Z,70.22
2019-03-06T08:55:30.410Z,70.73
2019-03-06T08:56:30.389Z,70.09
2019-03-06T08:57:30.380Z,70.19
2019-03-06T08:58:30.376Z,70.94
2019-03-06T08:59:30.353Z,71.11
2019-03-06T09:00:30.613Z,70.81
2019-03-06T09:01:30.332Z,69.89
2019-03-06T09:02:30.319Z,69.61
2019-03-06T09:03:30.318Z,70.29
2019-03-06T09:04:30.305Z,70.09
2019-03-06T09:05:30.990Z,69.44
2019-03-06T09:06:30.292Z,69.34
2019-03-06T09:07:30.274Z,68.52
2019-03-06T09:08:30.255Z,69.54
2019-03-06T09:09:30.251Z,69.44
2019-03-06T09:10:30.242Z,68.11
2019-03-06T09:11:30.296Z,68.38
2019-03-06T09:12:30.221Z,68.38
2019-03-06T09:13:30.215Z,68.38
2019-03-06T09:14:30.195Z,68.52
2019-03-06T09:15:30.187Z,69.41
2019-03-06T09:16:30.174Z,67.97
2019-03-06T09:17:30.182Z,68.38
2019-03-06T09:18:30.153Z,68.49
2019-03-06T09:19:30.137Z,68.38
2019-03-06T09:20:37.246Z,68.08
2019-03-06T09:21:31.126Z,67.87
2019-03-06T09:22:30.110Z,67.57
2019-03-06T09:23:30.107Z,67.67
2019-03-06T09:24:30.084Z,67.67
2019-03-06T09:25:30.080Z,68.28
2019-03-06T09:26:30.069Z,68.52
2019-03-06T09:27:30.060Z,68.01
2019-03-06T09:28:30.040Z,68.01
2019-03-06T09:29:30.030Z,67.87
2019-03-06T09:30:30.022Z,67.77
2019-03-06T09:31:30.000Z,67.90
2019-03-06T09:32:30.059Z,67.60
2019-03-06T09:33:29.986Z,67.40
2019-03-06T09:34:29.972Z,67.70
2019-03-06T09:35:29.967Z,68.41
2019-03-06T09:36:29.955Z,68.01
2019-03-06T09:37:29.944Z,67.80
2019-03-06T09:38:29.958Z,67.70
2019-03-06T09:39:29.945Z,68.01
2019-03-06T09:40:29.915Z,67.70
2019-03-06T09:41:29.907Z,67.87
2019-03-06T09:42:30.002Z,68.49
2019-03-06T09:43:29.894Z,67.77
2019-03-06T09:44:29.893Z,67.87
2019-03-06T09:45:29.863Z,66.82
2019-03-06T09:46:29.929Z,67.02
2019-03-06T09:47:29.841Z,66.92
2019-03-06T09:48:29.856Z,67.84
2019-03-06T09:49:29.816Z,67.33
2019-03-06T09:50:29.845Z,66.20
2019-03-06T09:51:29.815Z,66.00
2019-03-06T09:52:29.797Z,66.72
2019-03-06T09:53:29.780Z,66.28
2019-03-06T09:54:29.813Z,67.10
2019-03-06T09:55:29.750Z,66.31
2019-03-06T09:56:29.752Z,65.66
2019-03-06T09:57:29.721Z,66.07
2019-03-06T09:58:29.723Z,66.82
2019-03-06T09:59:29.780Z,65.87
2019-03-06T10:00:29.733Z,65.25
2019-03-06T10:01:29.709Z,66.78
2019-03-06T10:02:29.686Z,67.30
2019-03-06T10:03:29.655Z,65.36
2019-03-06T10:04:29.656Z,65.69
2019-03-06T10:05:29.766Z,66.78
2019-03-06T10:06:29.653Z,66.99
2019-03-06T10:07:29.640Z,66.17
2019-03-06T10:08:29.619Z,65.46
2019-03-06T10:09:29.598Z,66.58
2019-03-06T10:10:29.593Z,66.58
2019-03-06T10:11:29.564Z,65.46
2019-03-06T10:12:29.559Z,65.97
2019-03-06T10:13:29.581Z,65.97
2019-03-06T10:14:29.582Z,65.43
2019-03-06T10:15:29.529Z,66.25
2019-03-06T10:16:29.515Z,65.19
2019-03-06T10:17:30.263Z,65.30
2019-03-06T10:18:29.491Z,64.68
2019-03-06T10:19:29.681Z,64.99
2019-03-06T10:20:29.504Z,64.17
2019-03-06T10:21:29.468Z,64.58
2019-03-06T10:22:29.466Z,64.68
2019-03-06T10:23:29.440Z,65.40
2019-03-06T10:24:29.429Z,64.48
2019-03-06T10:25:30.606Z,64.07
2019-03-06T10:26:29.471Z,64.68
2019-03-06T10:27:29.411Z,65.09
2019-03-06T10:28:29.392Z,64.37
2019-03-06T10:29:29.378Z,65.70
2019-03-06T10:30:29.380Z,64.68
2019-03-06T10:31:29.357Z,64.58
2019-03-06T10:32:29.385Z,64.48
2019-03-06T10:33:29.335Z,64.68
2019-03-06T10:34:29.321Z,64.07
2019-03-06T10:35:29.395Z,64.20
2019-03-06T10:36:29.304Z,63.59
2019-03-06T10:37:29.297Z,64.61
2019-03-06T10:38:29.278Z,64.30
2019-03-06T10:39:29.270Z,65.02
2019-03-06T10:40:29.261Z,64.51
2019-03-06T10:41:29.262Z,64.81
2019-03-06T10:42:29.237Z,64.51
2019-03-06T10:43:29.223Z,65.50
2019-03-06T10:44:30.018Z,64.89
2019-03-06T10:45:29.245Z,64.40
2019-03-06T10:46:29.226Z,64.17
2019-03-06T10:47:29.181Z,64.17
2019-03-06T10:48:29.201Z,64.58
2019-03-06T10:49:29.183Z,64.48
2019-03-06T10:50:30.002Z,64.37
2019-03-06T10:51:31.034Z,63.66
2019-03-06T10:52:29.164Z,63.56
2019-03-06T10:53:29.139Z,63.83
2019-03-06T10:54:29.110Z,63.22
2019-03-06T10:55:29.112Z,63.43
2019-03-06T10:56:29.087Z,62.81
2019-03-06T10:57:29.079Z,62.81
2019-03-06T10:58:29.054Z,62.10
2019-03-06T10:59:29.049Z,62.71
2019-03-06T11:00:29.038Z,62.10
2019-03-06T11:01:29.048Z,61.97
2019-03-06T11:02:29.027Z,60.85
2019-03-06T11:03:28.998Z,61.05
2019-03-06T11:04:29.005Z,60.94
2019-03-06T11:05:28.980Z,61.87
2019-03-06T11:06:29.005Z,60.64
2019-03-06T11:07:28.954Z,59.89
2019-03-06T11:08:28.946Z,60.82
2019-03-06T11:09:28.937Z,59.97
2019-03-06T11:10:28.922Z,59.66
2019-03-06T11:11:28.921Z,59.66
2019-03-06T11:12:28.960Z,59.36
2019-03-06T11:13:28.893Z,59.77
2019-03-06T11:14:28.896Z,60.17
2019-03-06T11:15:28.911Z,58.64
2019-03-06T11:16:28.889Z,58.75
2019-03-06T11:17:28.885Z,58.51
2019-03-06T11:18:28.837Z,59.74
2019-03-06T11:19:28.832Z,58.72
2019-03-06T11:20:28.821Z,57.60
2019-03-06T11:21:28.801Z,59.00
2019-03-06T11:22:28.834Z,57.98
2019-03-06T11:23:28.853Z,57.67
2019-03-06T11:24:28.779Z,57.34
2019-03-06T11:25:28.760Z,57.65
2019-03-06T11:26:28.752Z,58.15
2019-03-06T11:27:28.752Z,57.34
2019-03-06T11:28:28.751Z,58.87
2019-03-06T11:29:28.717Z,59.58
2019-03-06T11:30:28.707Z,58.15
2019-03-06T11:31:28.690Z,56.93
2019-03-06T11:32:28.682Z,57.24
2019-03-06T11:33:28.690Z,58.15
2019-03-06T11:34:28.669Z,58.05
2019-03-06T11:35:28.664Z,57.75
2019-03-06T11:36:28.652Z,56.63
2019-03-06T11:37:28.632Z,57.04
2019-03-06T11:38:28.628Z,58.03
2019-03-06T11:39:28.613Z,57.34
2019-03-06T11:40:28.604Z,57.14
2019-03-06T11:41:28.587Z,57.62
2019-03-06T11:42:28.581Z,57.95
2019-03-06T11:43:28.577Z,57.34
2019-03-06T11:44:28.640Z,57.14
2019-03-06T11:45:28.556Z,56.93
2019-03-06T11:46:28.523Z,57.54
2019-03-06T11:47:28.536Z,57.01
2019-03-06T11:48:28.517Z,57.52
2019-03-06T11:49:28.530Z,58.74
2019-03-06T11:50:28.569Z,57.31
2019-03-06T11:51:28.494Z,59.25
2019-03-06T11:52:28.510Z,58.53
2019-03-06T11:53:28.452Z,57.21
2019-03-06T11:54:28.448Z,56.70
2019-03-06T11:55:28.492Z,57.11
2019-03-06T11:56:28.416Z,57.42
2019-03-06T11:57:28.439Z,57.69
2019-03-06T11:58:28.451Z,57.42
2019-03-06T11:59:28.395Z,56.68
2019-03-06T12:00:28.507Z,56.77
2019-03-06T12:01:28.391Z,57.59
2019-03-06T12:02:28.385Z,56.98
2019-03-06T12:03:28.347Z,57.08
2019-03-06T12:04:28.358Z,56.88
2019-03-06T12:05:28.463Z,56.57
2019-03-06T12:06:28.308Z,57.29
2019-03-06T12:07:28.315Z,57.01
2019-03-06T12:08:28.297Z,56.81
2019-03-06T12:09:28.304Z,56.07
2019-03-06T12:10:28.262Z,56.81
2019-03-06T12:11:28.279Z,56.90
2019-03-06T12:12:28.278Z,56.81
2019-03-06T12:13:28.256Z,56.60
2019-03-06T12:14:28.227Z,57.21
2019-03-06T12:15:28.206Z,57.72
2019-03-06T12:16:28.214Z,56.81
2019-03-06T12:17:28.188Z,57.21
2019-03-06T12:18:28.314Z,56.81
2019-03-06T12:19:28.194Z,57.62
2019-03-06T12:20:28.158Z,57.95
2019-03-06T12:21:28.172Z,57.24
2019-03-06T12:22:28.153Z,56.93
2019-03-06T12:23:28.117Z,57.24
2019-03-06T12:24:28.118Z,57.04
2019-03-06T12:25:28.129Z,57.75
2019-03-06T12:26:28.091Z,57.34
2019-03-06T12:27:28.433Z,58.15
2019-03-06T12:28:28.076Z,57.54
2019-03-06T12:29:28.060Z,57.37
2019-03-06T12:30:28.081Z,56.96
2019-03-06T12:31:28.043Z,56.73
2019-03-06T12:32:28.057Z,57.24
2019-03-06T12:33:28.023Z,58.08
2019-03-06T12:34:28.006Z,57.85
2019-03-06T12:35:27.984Z,56.96
2019-03-06T12:36:27.998Z,57.44
2019-03-06T12:37:27.982Z,58.97
2019-03-06T12:38:27.951Z,57.54
2019-03-06T12:39:27.994Z,58.08
2019-03-06T12:40:27.993Z,57.34
2019-03-06T12:41:28.951Z,57.98
2019-03-06T12:42:27.910Z,57.95
2019-03-06T12:43:27.939Z,57.17
2019-03-06T12:44:27.920Z,57.26
2019-03-06T12:45:27.944Z,57.98
2019-03-06T12:46:27.915Z,58.39
2019-03-06T12:47:27.872Z,57.78
2019-03-06T12:48:27.849Z,58.89
2019-03-06T12:49:27.836Z,57.87
2019-03-06T12:50:27.832Z,57.78
2019-03-06T12:51:27.866Z,57.98
2019-03-06T12:52:27.873Z,58.49